sensor_id;sensor_type;location;lat;lon;timestamp;P1;durP1;ratioP1;P2;durP2;ratioP2
5163;SDS011;2601;50.224;10.126;2023-06-24T00:00:45;145.70;;;9.87;;
5163;SDS011;2601;50.224;10.126;2023-06-24T00:03:10;146.07;;;9.93;;
5163;SDS011;2601;50.224;10.126;2023-06-24T00:05:42;147.07;;;10.03;;
5163;SDS011;2601;50.224;10.126;2023-06-24T00:08:08;145.03;;;9.77;;
5163;SDS011;2601;50.224;10.126;2023-06-24T00:10:33;143.53;;;9.50;;
5163;SDS011;2601;50.224;10.126;2023-06-24T00:12:59;144.97;;;10.13;;
5163;SDS011;2601;50.224;10.126;2023-06-24T00:15:27;146.07;;;11.03;;
5163;SDS011;2601;50.224;10.126;2023-06-24T00:17:53;147.07;;;10.40;;
5163;SDS011;2601;50.224;10.126;2023-06-24T00:20:19;144.73;;;9.53;;
5163;SDS011;2601;50.224;10.126;2023-06-24T00:22:45;145.47;;;10.00;;
5163;SDS011;2601;50.224;10.126;2023-06-24T00:25:13;145.37;;;10.17;;
5163;SDS011;2601;50.224;10.126;2023-06-24T00:27:40;144.07;;;9.80;;
5163;SDS011;2601;50.224;10.126;2023-06-24T00:30:07;146.57;;;10.23;;
5163;SDS011;2601;50.224;10.126;2023-06-24T00:32:33;148.50;;;9.80;;
5163;SDS011;2601;50.224;10.126;2023-06-24T00:34:59;146.07;;;9.70;;
5163;SDS011;2601;50.224;10.126;2023-06-24T00:37:25;146.60;;;10.00;;
5163;SDS011;2601;50.224;10.126;2023-06-24T00:39:50;145.13;;;9.77;;
5163;SDS011;2601;50.224;10.126;2023-06-24T00:42:16;146.57;;;9.50;;
5163;SDS011;2601;50.224;10.126;2023-06-24T00:44:42;145.27;;;9.73;;
5163;SDS011;2601;50.224;10.126;2023-06-24T00:47:08;150.47;;;10.33;;
5163;SDS011;2601;50.224;10.126;2023-06-24T00:49:35;146.83;;;9.90;;
5163;SDS011;2601;50.224;10.126;2023-06-24T00:52:01;145.07;;;9.73;;
5163;SDS011;2601;50.224;10.126;2023-06-24T00:54:26;145.90;;;9.90;;
5163;SDS011;2601;50.224;10.126;2023-06-24T00:56:56;146.33;;;10.37;;
5163;SDS011;2601;50.224;10.126;2023-06-24T00:59:22;144.47;;;9.27;;
5163;SDS011;2601;50.224;10.126;2023-06-24T01:01:48;144.50;;;9.53;;
5163;SDS011;2601;50.224;10.126;2023-06-24T01:04:17;147.83;;;10.73;;
5163;SDS011;2601;50.224;10.126;2023-06-24T01:06:44;145.90;;;10.17;;
5163;SDS011;2601;50.224;10.126;2023-06-24T01:09:12;145.77;;;9.77;;
5163;SDS011;2601;50.224;10.126;2023-06-24T01:11:38;148.13;;;9.70;;
5163;SDS011;2601;50.224;10.126;2023-06-24T01:14:04;153.07;;;10.27;;
5163;SDS011;2601;50.224;10.126;2023-06-24T01:16:32;145.90;;;9.90;;
5163;SDS011;2601;50.224;10.126;2023-06-24T01:19:01;146.77;;;10.10;;
5163;SDS011;2601;50.224;10.126;2023-06-24T01:25:08;147.23;;;9.70;;
5163;SDS011;2601;50.224;10.126;2023-06-24T01:34:01;146.47;;;9.77;;
5163;SDS011;2601;50.224;10.126;2023-06-24T01:36:40;147.37;;;9.43;;
5163;SDS011;2601;50.224;10.126;2023-06-24T01:39:11;147.17;;;9.93;;
5163;SDS011;2601;50.224;10.126;2023-06-24T01:41:41;146.90;;;10.20;;
5163;SDS011;2601;50.224;10.126;2023-06-24T01:44:09;146.00;;;10.00;;
5163;SDS011;2601;50.224;10.126;2023-06-24T01:46:38;146.37;;;9.73;;
5163;SDS011;2601;50.224;10.126;2023-06-24T01:49:05;144.40;;;9.60;;
5163;SDS011;2601;50.224;10.126;2023-06-24T01:51:36;144.97;;;9.80;;
5163;SDS011;2601;50.224;10.126;2023-06-24T01:54:04;145.77;;;9.70;;
5163;SDS011;2601;50.224;10.126;2023-06-24T01:56:32;145.50;;;9.20;;
5163;SDS011;2601;50.224;10.126;2023-06-24T01:59:00;151.23;;;10.27;;
5163;SDS011;2601;50.224;10.126;2023-06-24T02:01:29;147.97;;;9.13;;
5163;SDS011;2601;50.224;10.126;2023-06-24T02:03:57;146.83;;;10.20;;
5163;SDS011;2601;50.224;10.126;2023-06-24T02:06:25;146.97;;;9.67;;
5163;SDS011;2601;50.224;10.126;2023-06-24T02:08:53;145.77;;;9.70;;
5163;SDS011;2601;50.224;10.126;2023-06-24T02:11:21;144.17;;;8.93;;
5163;SDS011;2601;50.224;10.126;2023-06-24T02:13:48;146.17;;;9.30;;
5163;SDS011;2601;50.224;10.126;2023-06-24T02:16:17;147.07;;;10.30;;
5163;SDS011;2601;50.224;10.126;2023-06-24T02:18:45;145.57;;;9.97;;
5163;SDS011;2601;50.224;10.126;2023-06-24T02:21:13;145.33;;;9.10;;
5163;SDS011;2601;50.224;10.126;2023-06-24T02:23:41;146.70;;;10.03;;
5163;SDS011;2601;50.224;10.126;2023-06-24T02:26:07;146.97;;;9.77;;
5163;SDS011;2601;50.224;10.126;2023-06-24T02:28:34;147.60;;;10.30;;
5163;SDS011;2601;50.224;10.126;2023-06-24T02:31:02;152.70;;;10.03;;
5163;SDS011;2601;50.224;10.126;2023-06-24T02:33:29;143.57;;;8.53;;
5163;SDS011;2601;50.224;10.126;2023-06-24T02:35:54;146.03;;;9.57;;
5163;SDS011;2601;50.224;10.126;2023-06-24T02:38:20;146.93;;;9.20;;
5163;SDS011;2601;50.224;10.126;2023-06-24T02:40:45;148.47;;;9.40;;
5163;SDS011;2601;50.224;10.126;2023-06-24T02:43:11;147.60;;;9.97;;
5163;SDS011;2601;50.224;10.126;2023-06-24T02:45:37;148.27;;;10.67;;
5163;SDS011;2601;50.224;10.126;2023-06-24T02:48:04;146.63;;;9.30;;
5163;SDS011;2601;50.224;10.126;2023-06-24T02:50:31;148.60;;;10.60;;
5163;SDS011;2601;50.224;10.126;2023-06-24T02:52:58;146.97;;;9.97;;
5163;SDS011;2601;50.224;10.126;2023-06-24T02:55:24;147.47;;;9.73;;
5163;SDS011;2601;50.224;10.126;2023-06-24T02:57:50;150.03;;;10.37;;
5163;SDS011;2601;50.224;10.126;2023-06-24T03:00:16;151.07;;;9.37;;
5163;SDS011;2601;50.224;10.126;2023-06-24T03:02:43;148.77;;;10.03;;
5163;SDS011;2601;50.224;10.126;2023-06-24T03:05:09;146.97;;;9.97;;
5163;SDS011;2601;50.224;10.126;2023-06-24T03:07:36;152.83;;;10.13;;
5163;SDS011;2601;50.224;10.126;2023-06-24T03:10:03;147.27;;;9.07;;
5163;SDS011;2601;50.224;10.126;2023-06-24T03:12:30;149.13;;;10.17;;
5163;SDS011;2601;50.224;10.126;2023-06-24T03:14:56;148.17;;;10.23;;
5163;SDS011;2601;50.224;10.126;2023-06-24T03:17:22;147.07;;;9.80;;
5163;SDS011;2601;50.224;10.126;2023-06-24T03:19:49;146.97;;;10.37;;
5163;SDS011;2601;50.224;10.126;2023-06-24T03:22:15;148.60;;;10.00;;
5163;SDS011;2601;50.224;10.126;2023-06-24T03:24:42;147.57;;;10.30;;
5163;SDS011;2601;50.224;10.126;2023-06-24T03:27:08;146.87;;;10.00;;
5163;SDS011;2601;50.224;10.126;2023-06-24T03:29:33;147.13;;;10.50;;
5163;SDS011;2601;50.224;10.126;2023-06-24T03:31:59;147.20;;;10.80;;
5163;SDS011;2601;50.224;10.126;2023-06-24T03:34:25;148.27;;;10.60;;
5163;SDS011;2601;50.224;10.126;2023-06-24T03:36:51;149.07;;;11.00;;
5163;SDS011;2601;50.224;10.126;2023-06-24T03:39:19;149.37;;;11.50;;
5163;SDS011;2601;50.224;10.126;2023-06-24T03:41:45;151.80;;;10.90;;
5163;SDS011;2601;50.224;10.126;2023-06-24T03:44:11;150.63;;;11.60;;
5163;SDS011;2601;50.224;10.126;2023-06-24T03:46:37;150.03;;;11.47;;
5163;SDS011;2601;50.224;10.126;2023-06-24T03:49:02;148.97;;;11.07;;
5163;SDS011;2601;50.224;10.126;2023-06-24T03:51:28;148.63;;;11.23;;
5163;SDS011;2601;50.224;10.126;2023-06-24T03:53:54;155.37;;;11.57;;
5163;SDS011;2601;50.224;10.126;2023-06-24T03:56:20;152.20;;;11.00;;
5163;SDS011;2601;50.224;10.126;2023-06-24T03:58:45;150.67;;;12.30;;
5163;SDS011;2601;50.224;10.126;2023-06-24T04:01:11;149.10;;;11.63;;
5163;SDS011;2601;50.224;10.126;2023-06-24T04:03:36;150.80;;;12.07;;
5163;SDS011;2601;50.224;10.126;2023-06-24T04:06:02;150.77;;;12.40;;
5163;SDS011;2601;50.224;10.126;2023-06-24T04:08:27;153.97;;;12.57;;
5163;SDS011;2601;50.224;10.126;2023-06-24T04:10:56;149.97;;;11.57;;
5163;SDS011;2601;50.224;10.126;2023-06-24T04:13:24;149.37;;;11.40;;
5163;SDS011;2601;50.224;10.126;2023-06-24T04:15:50;151.27;;;11.40;;
5163;SDS011;2601;50.224;10.126;2023-06-24T04:18:16;151.17;;;11.70;;
5163;SDS011;2601;50.224;10.126;2023-06-24T04:20:42;151.23;;;11.93;;
5163;SDS011;2601;50.224;10.126;2023-06-24T04:23:07;152.30;;;12.20;;
5163;SDS011;2601;50.224;10.126;2023-06-24T04:25:35;147.97;;;11.47;;
5163;SDS011;2601;50.224;10.126;2023-06-24T04:28:01;150.67;;;11.30;;
5163;SDS011;2601;50.224;10.126;2023-06-24T04:30:27;150.03;;;11.70;;
5163;SDS011;2601;50.224;10.126;2023-06-24T04:32:52;151.57;;;12.43;;
5163;SDS011;2601;50.224;10.126;2023-06-24T04:35:18;160.37;;;12.13;;
5163;SDS011;2601;50.224;10.126;2023-06-24T04:37:43;149.90;;;11.87;;
5163;SDS011;2601;50.224;10.126;2023-06-24T04:40:09;153.90;;;11.67;;
5163;SDS011;2601;50.224;10.126;2023-06-24T04:42:35;149.80;;;12.10;;
5163;SDS011;2601;50.224;10.126;2023-06-24T04:45:00;150.27;;;12.13;;
5163;SDS011;2601;50.224;10.126;2023-06-24T04:47:30;150.87;;;12.10;;
5163;SDS011;2601;50.224;10.126;2023-06-24T04:49:55;150.57;;;12.10;;
5163;SDS011;2601;50.224;10.126;2023-06-24T04:52:22;148.60;;;11.03;;
5163;SDS011;2601;50.224;10.126;2023-06-24T04:54:48;150.80;;;12.47;;
5163;SDS011;2601;50.224;10.126;2023-06-24T04:57:28;155.03;;;11.97;;
5163;SDS011;2601;50.224;10.126;2023-06-24T04:59:55;151.50;;;11.60;;
5163;SDS011;2601;50.224;10.126;2023-06-24T05:02:21;150.20;;;11.60;;
5163;SDS011;2601;50.224;10.126;2023-06-24T05:04:47;149.43;;;11.60;;
5163;SDS011;2601;50.224;10.126;2023-06-24T05:07:12;150.37;;;11.90;;
5163;SDS011;2601;50.224;10.126;2023-06-24T05:09:38;148.93;;;11.73;;
5163;SDS011;2601;50.224;10.126;2023-06-24T05:12:04;151.30;;;12.00;;
5163;SDS011;2601;50.224;10.126;2023-06-24T05:14:30;149.93;;;11.40;;
5163;SDS011;2601;50.224;10.126;2023-06-24T05:16:56;149.30;;;11.70;;
5163;SDS011;2601;50.224;10.126;2023-06-24T05:19:22;148.90;;;11.57;;
5163;SDS011;2601;50.224;10.126;2023-06-24T05:21:47;148.60;;;11.67;;
5163;SDS011;2601;50.224;10.126;2023-06-24T05:24:13;148.73;;;10.77;;
5163;SDS011;2601;50.224;10.126;2023-06-24T05:26:38;148.87;;;10.17;;
5163;SDS011;2601;50.224;10.126;2023-06-24T05:29:04;150.70;;;11.93;;
5163;SDS011;2601;50.224;10.126;2023-06-24T05:31:29;146.97;;;10.87;;
5163;SDS011;2601;50.224;10.126;2023-06-24T05:33:55;149.17;;;11.33;;
5163;SDS011;2601;50.224;10.126;2023-06-24T05:36:21;149.83;;;11.40;;
5163;SDS011;2601;50.224;10.126;2023-06-24T05:38:47;148.23;;;11.30;;
5163;SDS011;2601;50.224;10.126;2023-06-24T05:41:14;149.03;;;11.30;;
5163;SDS011;2601;50.224;10.126;2023-06-24T05:43:42;148.17;;;11.30;;
5163;SDS011;2601;50.224;10.126;2023-06-24T05:46:08;149.50;;;11.30;;
5163;SDS011;2601;50.224;10.126;2023-06-24T05:48:34;148.37;;;10.80;;
5163;SDS011;2601;50.224;10.126;2023-06-24T05:51:00;149.10;;;10.57;;
5163;SDS011;2601;50.224;10.126;2023-06-24T05:53:25;150.47;;;12.03;;
5163;SDS011;2601;50.224;10.126;2023-06-24T05:55:51;149.50;;;11.40;;
5163;SDS011;2601;50.224;10.126;2023-06-24T05:58:16;146.70;;;10.70;;
5163;SDS011;2601;50.224;10.126;2023-06-24T06:00:42;148.20;;;11.27;;
5163;SDS011;2601;50.224;10.126;2023-06-24T06:03:07;147.90;;;10.57;;
5163;SDS011;2601;50.224;10.126;2023-06-24T06:05:34;149.70;;;11.13;;
5163;SDS011;2601;50.224;10.126;2023-06-24T06:07:59;148.00;;;11.07;;
5163;SDS011;2601;50.224;10.126;2023-06-24T06:10:25;145.40;;;10.20;;
5163;SDS011;2601;50.224;10.126;2023-06-24T06:12:51;147.50;;;10.87;;
5163;SDS011;2601;50.224;10.126;2023-06-24T06:15:18;148.17;;;10.43;;
5163;SDS011;2601;50.224;10.126;2023-06-24T06:17:44;148.37;;;10.17;;
5163;SDS011;2601;50.224;10.126;2023-06-24T06:20:11;148.40;;;10.80;;
5163;SDS011;2601;50.224;10.126;2023-06-24T06:22:36;157.87;;;10.90;;
5163;SDS011;2601;50.224;10.126;2023-06-24T06:25:06;150.47;;;10.80;;
5163;SDS011;2601;50.224;10.126;2023-06-24T06:27:32;149.07;;;11.17;;
5163;SDS011;2601;50.224;10.126;2023-06-24T06:29:58;153.47;;;10.77;;
5163;SDS011;2601;50.224;10.126;2023-06-24T06:32:24;147.70;;;10.50;;
5163;SDS011;2601;50.224;10.126;2023-06-24T06:34:49;147.17;;;10.00;;
5163;SDS011;2601;50.224;10.126;2023-06-24T06:37:15;149.47;;;10.77;;
5163;SDS011;2601;50.224;10.126;2023-06-24T06:39:41;151.87;;;10.30;;
5163;SDS011;2601;50.224;10.126;2023-06-24T06:42:06;148.90;;;11.33;;
5163;SDS011;2601;50.224;10.126;2023-06-24T06:44:32;150.17;;;10.60;;
5163;SDS011;2601;50.224;10.126;2023-06-24T06:46:57;146.70;;;10.70;;
5163;SDS011;2601;50.224;10.126;2023-06-24T06:49:23;148.37;;;10.90;;
5163;SDS011;2601;50.224;10.126;2023-06-24T06:51:49;148.57;;;11.00;;
5163;SDS011;2601;50.224;10.126;2023-06-24T06:54:14;146.53;;;10.87;;
5163;SDS011;2601;50.224;10.126;2023-06-24T06:56:40;147.20;;;10.43;;
5163;SDS011;2601;50.224;10.126;2023-06-24T06:59:05;146.90;;;10.50;;
5163;SDS011;2601;50.224;10.126;2023-06-24T07:01:31;145.70;;;10.20;;
5163;SDS011;2601;50.224;10.126;2023-06-24T07:03:57;145.67;;;9.90;;
5163;SDS011;2601;50.224;10.126;2023-06-24T07:06:22;146.40;;;10.33;;
5163;SDS011;2601;50.224;10.126;2023-06-24T07:08:48;146.83;;;10.90;;
5163;SDS011;2601;50.224;10.126;2023-06-24T07:11:13;147.50;;;11.17;;
5163;SDS011;2601;50.224;10.126;2023-06-24T07:13:39;147.20;;;10.33;;
5163;SDS011;2601;50.224;10.126;2023-06-24T07:16:05;145.87;;;10.30;;
5163;SDS011;2601;50.224;10.126;2023-06-24T07:18:30;147.13;;;9.97;;
5163;SDS011;2601;50.224;10.126;2023-06-24T07:20:56;146.47;;;9.90;;
5163;SDS011;2601;50.224;10.126;2023-06-24T07:23:24;147.97;;;10.60;;
5163;SDS011;2601;50.224;10.126;2023-06-24T07:25:50;147.03;;;10.17;;
5163;SDS011;2601;50.224;10.126;2023-06-24T07:28:16;146.50;;;10.43;;
5163;SDS011;2601;50.224;10.126;2023-06-24T07:30:41;146.37;;;10.23;;
5163;SDS011;2601;50.224;10.126;2023-06-24T07:33:07;146.93;;;10.50;;
5163;SDS011;2601;50.224;10.126;2023-06-24T07:35:33;148.67;;;10.40;;
5163;SDS011;2601;50.224;10.126;2023-06-24T07:37:59;148.70;;;10.10;;
5163;SDS011;2601;50.224;10.126;2023-06-24T07:40:25;146.70;;;10.57;;
5163;SDS011;2601;50.224;10.126;2023-06-24T07:42:52;147.17;;;9.90;;
5163;SDS011;2601;50.224;10.126;2023-06-24T07:45:18;146.67;;;10.57;;
5163;SDS011;2601;50.224;10.126;2023-06-24T07:47:44;146.60;;;10.57;;
5163;SDS011;2601;50.224;10.126;2023-06-24T07:50:09;148.87;;;11.07;;
5163;SDS011;2601;50.224;10.126;2023-06-24T07:52:36;150.40;;;10.80;;
5163;SDS011;2601;50.224;10.126;2023-06-24T07:55:04;146.03;;;10.00;;
5163;SDS011;2601;50.224;10.126;2023-06-24T07:57:30;147.17;;;10.23;;
5163;SDS011;2601;50.224;10.126;2023-06-24T07:59:56;148.07;;;10.30;;
5163;SDS011;2601;50.224;10.126;2023-06-24T08:02:22;147.27;;;10.37;;
5163;SDS011;2601;50.224;10.126;2023-06-24T08:04:51;164.73;;;10.40;;
5163;SDS011;2601;50.224;10.126;2023-06-24T08:07:17;156.27;;;11.63;;
5163;SDS011;2601;50.224;10.126;2023-06-24T08:09:42;156.70;;;11.00;;
5163;SDS011;2601;50.224;10.126;2023-06-24T08:12:08;150.03;;;10.17;;
5163;SDS011;2601;50.224;10.126;2023-06-24T08:14:34;151.27;;;10.30;;
5163;SDS011;2601;50.224;10.126;2023-06-24T08:17:00;153.70;;;10.40;;
5163;SDS011;2601;50.224;10.126;2023-06-24T08:19:26;157.50;;;10.70;;
5163;SDS011;2601;50.224;10.126;2023-06-24T08:21:51;159.30;;;10.97;;
5163;SDS011;2601;50.224;10.126;2023-06-24T08:24:17;148.17;;;9.97;;
5163;SDS011;2601;50.224;10.126;2023-06-24T08:26:43;154.57;;;11.20;;
5163;SDS011;2601;50.224;10.126;2023-06-24T08:29:08;150.27;;;10.27;;
5163;SDS011;2601;50.224;10.126;2023-06-24T08:31:34;148.50;;;10.33;;
5163;SDS011;2601;50.224;10.126;2023-06-24T08:34:00;153.13;;;10.57;;
5163;SDS011;2601;50.224;10.126;2023-06-24T08:36:27;160.40;;;11.10;;
5163;SDS011;2601;50.224;10.126;2023-06-24T08:38:54;154.83;;;10.90;;
5163;SDS011;2601;50.224;10.126;2023-06-24T08:41:19;149.90;;;10.10;;
5163;SDS011;2601;50.224;10.126;2023-06-24T08:43:45;154.67;;;11.00;;
5163;SDS011;2601;50.224;10.126;2023-06-24T08:46:11;155.53;;;11.50;;
5163;SDS011;2601;50.224;10.126;2023-06-24T08:48:40;151.47;;;11.40;;
5163;SDS011;2601;50.224;10.126;2023-06-24T08:51:08;150.87;;;10.97;;
5163;SDS011;2601;50.224;10.126;2023-06-24T08:53:34;152.50;;;11.67;;
5163;SDS011;2601;50.224;10.126;2023-06-24T08:56:02;152.47;;;11.50;;
5163;SDS011;2601;50.224;10.126;2023-06-24T08:58:29;151.97;;;11.20;;
5163;SDS011;2601;50.224;10.126;2023-06-24T09:00:54;158.70;;;11.60;;
5163;SDS011;2601;50.224;10.126;2023-06-24T09:03:21;151.13;;;11.40;;
5163;SDS011;2601;50.224;10.126;2023-06-24T09:05:47;150.70;;;10.57;;
5163;SDS011;2601;50.224;10.126;2023-06-24T09:08:13;150.27;;;11.37;;
5163;SDS011;2601;50.224;10.126;2023-06-24T09:10:40;154.87;;;11.60;;
5163;SDS011;2601;50.224;10.126;2023-06-24T09:13:06;153.77;;;11.60;;
5163;SDS011;2601;50.224;10.126;2023-06-24T09:15:32;155.40;;;12.67;;
5163;SDS011;2601;50.224;10.126;2023-06-24T09:18:02;158.83;;;11.47;;
5163;SDS011;2601;50.224;10.126;2023-06-24T09:20:29;154.10;;;11.87;;
5163;SDS011;2601;50.224;10.126;2023-06-24T09:23:00;150.43;;;11.33;;
5163;SDS011;2601;50.224;10.126;2023-06-24T09:25:27;154.77;;;12.13;;
5163;SDS011;2601;50.224;10.126;2023-06-24T09:27:52;154.63;;;11.90;;
5163;SDS011;2601;50.224;10.126;2023-06-24T09:30:21;171.73;;;10.80;;
5163;SDS011;2601;50.224;10.126;2023-06-24T09:32:48;151.67;;;11.03;;
5163;SDS011;2601;50.224;10.126;2023-06-24T09:35:14;150.40;;;11.47;;
5163;SDS011;2601;50.224;10.126;2023-06-24T09:37:42;152.57;;;12.07;;
5163;SDS011;2601;50.224;10.126;2023-06-24T09:40:08;151.87;;;12.50;;
5163;SDS011;2601;50.224;10.126;2023-06-24T09:42:35;153.97;;;12.43;;
5163;SDS011;2601;50.224;10.126;2023-06-24T09:45:04;153.40;;;11.03;;
5163;SDS011;2601;50.224;10.126;2023-06-24T09:47:30;149.47;;;10.90;;
5163;SDS011;2601;50.224;10.126;2023-06-24T09:49:56;152.17;;;11.20;;
5163;SDS011;2601;50.224;10.126;2023-06-24T09:52:22;152.67;;;11.10;;
5163;SDS011;2601;50.224;10.126;2023-06-24T09:54:50;151.83;;;11.50;;
5163;SDS011;2601;50.224;10.126;2023-06-24T09:57:21;149.57;;;11.33;;
5163;SDS011;2601;50.224;10.126;2023-06-24T09:59:52;153.60;;;11.80;;
5163;SDS011;2601;50.224;10.126;2023-06-24T10:02:18;148.83;;;10.83;;
5163;SDS011;2601;50.224;10.126;2023-06-24T10:04:44;146.90;;;10.50;;
5163;SDS011;2601;50.224;10.126;2023-06-24T10:07:12;151.50;;;11.57;;
5163;SDS011;2601;50.224;10.126;2023-06-24T10:09:39;152.70;;;12.20;;
5163;SDS011;2601;50.224;10.126;2023-06-24T10:12:05;152.23;;;11.47;;
5163;SDS011;2601;50.224;10.126;2023-06-24T10:14:31;154.37;;;12.30;;
5163;SDS011;2601;50.224;10.126;2023-06-24T10:17:01;148.50;;;12.00;;
5163;SDS011;2601;50.224;10.126;2023-06-24T10:19:30;152.43;;;11.10;;
5163;SDS011;2601;50.224;10.126;2023-06-24T10:22:02;150.77;;;11.90;;
5163;SDS011;2601;50.224;10.126;2023-06-24T10:24:31;153.00;;;12.80;;
5163;SDS011;2601;50.224;10.126;2023-06-24T10:27:02;150.67;;;11.40;;
5163;SDS011;2601;50.224;10.126;2023-06-24T10:29:53;153.90;;;12.23;;
5163;SDS011;2601;50.224;10.126;2023-06-24T10:32:23;153.87;;;12.27;;
5163;SDS011;2601;50.224;10.126;2023-06-24T10:34:54;150.93;;;11.83;;
5163;SDS011;2601;50.224;10.126;2023-06-24T10:37:22;150.27;;;11.60;;
5163;SDS011;2601;50.224;10.126;2023-06-24T10:39:53;150.07;;;12.00;;
5163;SDS011;2601;50.224;10.126;2023-06-24T10:44:49;156.27;;;13.40;;
5163;SDS011;2601;50.224;10.126;2023-06-24T10:47:16;150.97;;;12.03;;
5163;SDS011;2601;50.224;10.126;2023-06-24T10:49:42;151.47;;;11.97;;
5163;SDS011;2601;50.224;10.126;2023-06-24T10:52:08;151.07;;;12.50;;
5163;SDS011;2601;50.224;10.126;2023-06-24T10:54:37;150.80;;;12.73;;
5163;SDS011;2601;50.224;10.126;2023-06-24T10:57:06;149.00;;;12.17;;
5163;SDS011;2601;50.224;10.126;2023-06-24T10:59:42;152.90;;;13.20;;
5163;SDS011;2601;50.224;10.126;2023-06-24T11:02:18;150.07;;;13.37;;
5163;SDS011;2601;50.224;10.126;2023-06-24T11:04:46;165.17;;;14.50;;
5163;SDS011;2601;50.224;10.126;2023-06-24T11:07:13;161.43;;;13.33;;
5163;SDS011;2601;50.224;10.126;2023-06-24T11:09:47;162.70;;;13.67;;
5163;SDS011;2601;50.224;10.126;2023-06-24T11:12:18;153.27;;;12.93;;
5163;SDS011;2601;50.224;10.126;2023-06-24T11:14:44;155.83;;;13.77;;
5163;SDS011;2601;50.224;10.126;2023-06-24T11:17:10;154.77;;;12.80;;
5163;SDS011;2601;50.224;10.126;2023-06-24T11:19:36;155.27;;;13.60;;
5163;SDS011;2601;50.224;10.126;2023-06-24T11:22:05;156.50;;;13.20;;
5163;SDS011;2601;50.224;10.126;2023-06-24T11:24:31;153.00;;;12.47;;
5163;SDS011;2601;50.224;10.126;2023-06-24T11:26:57;150.67;;;12.30;;
5163;SDS011;2601;50.224;10.126;2023-06-24T11:29:23;152.60;;;12.13;;
5163;SDS011;2601;50.224;10.126;2023-06-24T11:31:49;153.80;;;12.80;;
5163;SDS011;2601;50.224;10.126;2023-06-24T11:34:15;155.17;;;12.50;;
5163;SDS011;2601;50.224;10.126;2023-06-24T11:36:41;152.90;;;12.40;;
5163;SDS011;2601;50.224;10.126;2023-06-24T11:39:07;147.57;;;11.47;;
5163;SDS011;2601;50.224;10.126;2023-06-24T11:41:32;148.97;;;12.37;;
5163;SDS011;2601;50.224;10.126;2023-06-24T11:43:58;149.97;;;11.90;;
5163;SDS011;2601;50.224;10.126;2023-06-24T11:46:27;149.80;;;12.17;;
5163;SDS011;2601;50.224;10.126;2023-06-24T11:49:08;150.20;;;11.40;;
5163;SDS011;2601;50.224;10.126;2023-06-24T11:51:34;153.53;;;12.73;;
5163;SDS011;2601;50.224;10.126;2023-06-24T11:54:01;149.60;;;11.60;;
5163;SDS011;2601;50.224;10.126;2023-06-24T11:56:34;150.27;;;12.27;;
5163;SDS011;2601;50.224;10.126;2023-06-24T11:59:07;153.03;;;12.50;;
5163;SDS011;2601;50.224;10.126;2023-06-24T12:01:42;151.10;;;12.27;;
5163;SDS011;2601;50.224;10.126;2023-06-24T12:04:14;149.37;;;11.50;;
5163;SDS011;2601;50.224;10.126;2023-06-24T12:06:40;149.30;;;11.47;;
5163;SDS011;2601;50.224;10.126;2023-06-24T12:09:07;149.90;;;11.67;;
5163;SDS011;2601;50.224;10.126;2023-06-24T12:11:36;156.80;;;11.80;;
5163;SDS011;2601;50.224;10.126;2023-06-24T12:14:02;149.63;;;12.23;;
5163;SDS011;2601;50.224;10.126;2023-06-24T12:16:28;148.77;;;12.37;;
5163;SDS011;2601;50.224;10.126;2023-06-24T12:18:54;149.37;;;11.20;;
5163;SDS011;2601;50.224;10.126;2023-06-24T12:21:20;146.27;;;11.10;;
5163;SDS011;2601;50.224;10.126;2023-06-24T12:23:46;150.23;;;12.67;;
5163;SDS011;2601;50.224;10.126;2023-06-24T12:26:11;155.00;;;12.03;;
5163;SDS011;2601;50.224;10.126;2023-06-24T12:28:37;151.10;;;11.90;;
5163;SDS011;2601;50.224;10.126;2023-06-24T12:31:03;147.37;;;11.93;;
5163;SDS011;2601;50.224;10.126;2023-06-24T12:33:30;148.27;;;11.37;;
5163;SDS011;2601;50.224;10.126;2023-06-24T12:35:55;148.10;;;11.40;;
5163;SDS011;2601;50.224;10.126;2023-06-24T12:38:21;149.20;;;11.00;;
5163;SDS011;2601;50.224;10.126;2023-06-24T12:40:46;148.93;;;10.63;;
5163;SDS011;2601;50.224;10.126;2023-06-24T12:43:13;159.67;;;12.13;;
5163;SDS011;2601;50.224;10.126;2023-06-24T12:45:39;148.73;;;11.53;;
5163;SDS011;2601;50.224;10.126;2023-06-24T12:48:08;149.80;;;11.73;;
5163;SDS011;2601;50.224;10.126;2023-06-24T12:50:37;149.57;;;10.87;;
5163;SDS011;2601;50.224;10.126;2023-06-24T12:53:03;159.30;;;10.70;;
5163;SDS011;2601;50.224;10.126;2023-06-24T12:55:29;154.77;;;11.30;;
5163;SDS011;2601;50.224;10.126;2023-06-24T12:57:55;150.10;;;11.00;;
5163;SDS011;2601;50.224;10.126;2023-06-24T13:00:21;152.30;;;13.23;;
5163;SDS011;2601;50.224;10.126;2023-06-24T13:02:48;153.50;;;11.43;;
5163;SDS011;2601;50.224;10.126;2023-06-24T13:05:14;148.17;;;11.37;;
5163;SDS011;2601;50.224;10.126;2023-06-24T13:07:40;151.00;;;10.90;;
5163;SDS011;2601;50.224;10.126;2023-06-24T13:10:06;151.97;;;11.50;;
5163;SDS011;2601;50.224;10.126;2023-06-24T13:12:32;150.47;;;11.80;;
5163;SDS011;2601;50.224;10.126;2023-06-24T13:14:58;147.37;;;10.83;;
5163;SDS011;2601;50.224;10.126;2023-06-24T13:17:24;151.17;;;11.90;;
5163;SDS011;2601;50.224;10.126;2023-06-24T13:19:50;152.43;;;11.60;;
5163;SDS011;2601;50.224;10.126;2023-06-24T13:22:16;149.47;;;11.67;;
5163;SDS011;2601;50.224;10.126;2023-06-24T13:24:42;150.60;;;11.83;;
5163;SDS011;2601;50.224;10.126;2023-06-24T13:27:08;152.67;;;11.40;;
5163;SDS011;2601;50.224;10.126;2023-06-24T13:29:33;149.63;;;10.77;;
5163;SDS011;2601;50.224;10.126;2023-06-24T13:31:59;147.47;;;11.00;;
5163;SDS011;2601;50.224;10.126;2023-06-24T13:34:25;145.40;;;10.97;;
5163;SDS011;2601;50.224;10.126;2023-06-24T13:36:50;149.77;;;11.83;;
5163;SDS011;2601;50.224;10.126;2023-06-24T13:39:16;147.97;;;10.90;;
5163;SDS011;2601;50.224;10.126;2023-06-24T13:41:42;145.90;;;10.60;;
5163;SDS011;2601;50.224;10.126;2023-06-24T13:44:09;148.47;;;11.43;;
5163;SDS011;2601;50.224;10.126;2023-06-24T13:46:35;148.97;;;11.17;;
5163;SDS011;2601;50.224;10.126;2023-06-24T13:49:00;154.87;;;11.87;;
5163;SDS011;2601;50.224;10.126;2023-06-24T13:51:27;148.17;;;10.80;;
5163;SDS011;2601;50.224;10.126;2023-06-24T13:53:53;149.00;;;10.80;;
5163;SDS011;2601;50.224;10.126;2023-06-24T13:56:20;150.80;;;10.60;;
5163;SDS011;2601;50.224;10.126;2023-06-24T13:58:46;160.00;;;10.60;;
5163;SDS011;2601;50.224;10.126;2023-06-24T14:01:12;152.77;;;11.03;;
5163;SDS011;2601;50.224;10.126;2023-06-24T14:03:38;166.13;;;12.93;;
5163;SDS011;2601;50.224;10.126;2023-06-24T14:06:04;171.10;;;12.53;;
5163;SDS011;2601;50.224;10.126;2023-06-24T14:08:30;195.37;;;11.73;;
5163;SDS011;2601;50.224;10.126;2023-06-24T14:10:57;169.10;;;11.80;;
5163;SDS011;2601;50.224;10.126;2023-06-24T14:13:22;170.83;;;12.13;;
5163;SDS011;2601;50.224;10.126;2023-06-24T14:15:48;160.03;;;10.90;;
5163;SDS011;2601;50.224;10.126;2023-06-24T14:18:14;171.60;;;12.50;;
5163;SDS011;2601;50.224;10.126;2023-06-24T14:20:39;162.23;;;12.17;;
5163;SDS011;2601;50.224;10.126;2023-06-24T14:23:06;155.70;;;11.73;;
5163;SDS011;2601;50.224;10.126;2023-06-24T14:25:31;154.43;;;10.87;;
5163;SDS011;2601;50.224;10.126;2023-06-24T14:27:57;163.60;;;11.23;;
5163;SDS011;2601;50.224;10.126;2023-06-24T14:30:23;158.33;;;11.80;;
5163;SDS011;2601;50.224;10.126;2023-06-24T14:32:48;160.00;;;11.60;;